createdAt,value
2022-11-19T00:01:23.655Z,0.52
2022-11-19T00:03:57.213Z,0.49
2022-11-19T00:06:31.077Z,0.49
2022-11-19T00:09:06.117Z,0.47
2022-11-19T00:11:57.242Z,0.44
2022-11-19T00:14:31.086Z,0.42
2022-11-19T00:17:04.437Z,0.42
2022-11-19T00:19:37.892Z,0.45
2022-11-19T00:22:11.621Z,0.48
2022-11-19T00:24:45.294Z,0.51
2022-11-19T00:27:18.892Z,0.54
2022-11-19T00:29:52.104Z,0.58
2022-11-19T00:32:25.575Z,0.60
2022-11-19T00:34:59.228Z,0.62
2022-11-19T00:37:32.958Z,0.64
2022-11-19T00:40:08.409Z,0.63
2022-11-19T00:43:01.971Z,0.62
2022-11-19T00:45:35.758Z,0.61
2022-11-19T00:48:10.036Z,0.58
2022-11-19T00:50:43.705Z,0.56
2022-11-19T00:53:17.349Z,0.53
2022-11-19T00:55:50.439Z,0.52
2022-11-19T00:58:24.555Z,0.51
2022-11-19T01:00:58.206Z,0.49
2022-11-19T01:03:32.155Z,0.50
2022-11-19T01:06:06.276Z,0.50
2022-11-19T01:08:42.610Z,0.50
2022-11-19T01:11:18.257Z,0.47
2022-11-19T01:13:52.623Z,0.45
2022-11-19T01:16:28.695Z,0.44
2022-11-19T01:19:02.798Z,0.43
2022-11-19T01:21:37.477Z,0.44
2022-11-19T01:24:11.354Z,0.45
2022-11-19T01:26:46.190Z,0.45
2022-11-19T01:29:20.301Z,0.45
2022-11-19T01:31:54.060Z,0.47
2022-11-19T01:34:27.558Z,0.49
2022-11-19T01:37:01.488Z,0.51
2022-11-19T01:39:34.986Z,0.56
2022-11-19T01:42:29.406Z,0.59
2022-11-19T01:45:07.181Z,0.57
2022-11-19T01:47:40.575Z,0.57
2022-11-19T01:50:14.201Z,0.57
2022-11-19T01:52:47.666Z,0.59
2022-11-19T01:55:22.709Z,0.59
2022-11-19T01:58:00.864Z,0.59
2022-11-19T02:00:34.343Z,0.60
2022-11-19T02:03:08.010Z,0.57
2022-11-19T02:05:43.789Z,0.56
2022-11-19T02:08:38.962Z,0.56
2022-11-19T02:11:36.952Z,0.53
2022-11-19T02:14:26.020Z,0.53
2022-11-19T02:17:11.900Z,0.53
2022-11-19T02:20:16.393Z,0.53
2022-11-19T02:23:19.752Z,0.54
2022-11-19T02:26:16.700Z,0.53
2022-11-19T02:28:54.198Z,0.50
2022-11-19T02:31:32.912Z,0.49
2022-11-19T02:34:13.033Z,0.49
2022-11-19T02:36:52.956Z,0.49
2022-11-19T02:39:31.828Z,0.48
2022-11-19T02:42:14.911Z,0.46
2022-11-19T02:45:02.852Z,0.45
2022-11-19T02:47:41.148Z,0.42
2022-11-19T02:50:18.135Z,0.41
2022-11-19T02:52:53.052Z,0.41
2022-11-19T02:55:26.786Z,0.40
2022-11-19T02:58:06.557Z,0.39
2022-11-19T03:01:03.701Z,0.38
2022-11-19T03:03:56.531Z,0.37
2022-11-19T03:06:33.151Z,0.38
2022-11-19T03:09:07.859Z,0.41
2022-11-19T03:11:42.422Z,0.45
2022-11-19T03:14:40.903Z,0.48
2022-11-19T03:17:21.659Z,0.52
2022-11-19T03:20:03.450Z,0.55
2022-11-19T03:22:43.272Z,0.57
2022-11-19T03:25:22.021Z,0.57
2022-11-19T03:27:59.674Z,0.58
2022-11-19T03:30:33.926Z,0.59
2022-11-19T03:33:11.949Z,0.60
2022-11-19T03:35:51.991Z,0.61
2022-11-19T03:38:29.248Z,0.61
2022-11-19T03:41:05.758Z,0.59
2022-11-19T03:43:43.301Z,0.58
2022-11-19T03:46:19.431Z,0.58
2022-11-19T03:48:56.710Z,0.58
2022-11-19T03:51:38.933Z,0.57
2022-11-19T03:54:12.999Z,0.56
2022-11-19T03:56:48.471Z,0.56
2022-11-19T03:59:26.721Z,0.56
2022-11-19T04:02:06.718Z,0.55
2022-11-19T04:04:40.750Z,0.55
2022-11-19T04:07:16.434Z,0.54
2022-11-19T04:09:50.139Z,0.54
2022-11-19T04:12:25.179Z,0.55
2022-11-19T04:14:58.650Z,0.57
2022-11-19T04:17:32.065Z,0.60
2022-11-19T04:20:05.818Z,0.63
2022-11-19T04:22:40.048Z,0.64
2022-11-19T04:25:14.133Z,0.64
2022-11-19T04:27:48.701Z,0.63
2022-11-19T04:30:23.089Z,0.62
2022-11-19T04:32:56.923Z,0.60
2022-11-19T04:35:30.721Z,0.59
2022-11-19T04:38:04.501Z,0.58
2022-11-19T04:40:39.456Z,0.55
2022-11-19T04:43:12.834Z,0.53
2022-11-19T04:45:46.384Z,0.51
2022-11-19T04:48:19.811Z,0.51
2022-11-19T04:50:53.610Z,0.50
2022-11-19T04:53:27.123Z,0.51
2022-11-19T04:56:00.433Z,0.54
2022-11-19T04:58:34.100Z,0.55
2022-11-19T05:01:08.007Z,0.57
2022-11-19T05:03:41.523Z,0.60
2022-11-19T05:06:15.004Z,0.62
2022-11-19T05:08:48.360Z,0.65
2022-11-19T05:11:22.369Z,0.64
2022-11-19T05:13:56.388Z,0.63
2022-11-19T05:16:30.243Z,0.61
2022-11-19T05:19:03.940Z,0.60
2022-11-19T05:21:37.794Z,0.58
2022-11-19T05:24:12.675Z,0.56
2022-11-19T05:26:46.121Z,0.55
2022-11-19T05:29:19.791Z,0.53
2022-11-19T05:31:53.563Z,0.54
2022-11-19T05:34:27.080Z,0.57
2022-11-19T05:37:00.316Z,0.58
2022-11-19T05:39:33.931Z,0.59
2022-11-19T05:42:07.652Z,0.60
2022-11-19T05:44:41.242Z,0.60
2022-11-19T05:47:16.517Z,0.58
2022-11-19T05:49:50.221Z,0.57
2022-11-19T05:52:23.728Z,0.57
2022-11-19T05:54:57.662Z,0.54
2022-11-19T05:57:30.879Z,0.52
2022-11-19T06:00:04.422Z,0.50
2022-11-19T06:02:46.658Z,0.47
2022-11-19T06:05:21.050Z,0.45
2022-11-19T06:07:54.424Z,0.45
2022-11-19T06:10:29.108Z,0.48
2022-11-19T06:13:02.648Z,0.51
2022-11-19T06:15:36.491Z,0.53
2022-11-19T06:18:09.972Z,0.55
2022-11-19T06:20:43.456Z,0.57
2022-11-19T06:23:16.969Z,0.59
2022-11-19T06:25:55.581Z,0.61
2022-11-19T06:28:29.228Z,0.61
2022-11-19T06:31:02.388Z,0.60
2022-11-19T06:33:36.201Z,0.59
2022-11-19T06:36:11.228Z,0.57
2022-11-19T06:38:45.165Z,0.56
2022-11-19T06:41:19.034Z,0.57
2022-11-19T06:43:52.851Z,0.57
2022-11-19T06:46:26.311Z,0.58
2022-11-19T06:48:59.616Z,0.58
2022-11-19T06:51:33.415Z,0.58
2022-11-19T06:54:06.913Z,0.60
2022-11-19T06:56:40.410Z,0.62
2022-11-19T06:59:14.207Z,0.63
2022-11-19T07:01:47.663Z,0.68
2022-11-19T07:04:21.094Z,0.72
2022-11-19T07:06:54.809Z,0.77
2022-11-19T07:09:28.731Z,0.80
2022-11-19T07:12:02.473Z,0.82
2022-11-19T07:14:36.033Z,0.84
2022-11-19T07:17:10.147Z,0.84
2022-11-19T07:19:43.784Z,0.83
2022-11-19T07:22:17.641Z,0.84
2022-11-19T07:24:51.080Z,0.87
2022-11-19T07:27:24.691Z,0.90
2022-11-19T07:29:58.562Z,0.96
2022-11-19T07:32:32.305Z,1.03
2022-11-19T07:35:05.975Z,1.09
2022-11-19T07:37:39.404Z,1.16
2022-11-19T07:40:17.116Z,1.23
2022-11-19T07:42:50.723Z,1.31
2022-11-19T07:45:25.222Z,1.38
2022-11-19T07:47:58.761Z,1.48
2022-11-19T07:50:32.241Z,1.56
2022-11-19T07:53:06.444Z,1.62
2022-11-19T07:55:40.272Z,1.68
2022-11-19T07:58:14.300Z,1.76
2022-11-19T08:00:47.900Z,1.86
2022-11-19T08:03:21.575Z,1.95
2022-11-19T08:05:55.266Z,2.02
2022-11-19T08:08:28.966Z,2.07
2022-11-19T08:11:06.961Z,2.10
2022-11-19T08:13:42.971Z,2.17
2022-11-19T08:16:38.381Z,2.25
2022-11-19T08:19:15.240Z,2.36
2022-11-19T08:21:50.048Z,2.48
2022-11-19T08:24:24.488Z,2.61
2022-11-19T08:26:58.039Z,2.71
2022-11-19T08:29:31.848Z,2.79
2022-11-19T08:32:05.947Z,2.86
2022-11-19T08:34:39.852Z,2.90
2022-11-19T08:37:13.946Z,2.92
2022-11-19T08:39:47.404Z,2.93
2022-11-19T08:42:38.621Z,2.92
2022-11-19T08:45:16.818Z,2.96
2022-11-19T08:47:54.273Z,3.06
2022-11-19T08:50:29.247Z,3.21
2022-11-19T08:53:04.236Z,3.46
2022-11-19T08:55:37.563Z,3.70
2022-11-19T08:58:13.117Z,3.75
2022-11-19T09:00:46.874Z,3.63
2022-11-19T09:03:20.554Z,3.58
2022-11-19T09:05:59.551Z,3.59
2022-11-19T09:08:33.269Z,3.63
2022-11-19T09:11:12.336Z,3.68
2022-11-19T09:13:46.255Z,3.71
2022-11-19T09:16:20.414Z,3.72
2022-11-19T09:18:53.643Z,3.70
2022-11-19T09:21:27.065Z,3.65
2022-11-19T09:24:00.735Z,3.63
2022-11-19T09:26:33.972Z,3.65
2022-11-19T09:29:07.898Z,3.67
2022-11-19T09:31:41.743Z,3.69
2022-11-19T09:34:15.031Z,3.63
2022-11-19T09:36:49.310Z,3.59
2022-11-19T09:39:23.020Z,3.56
2022-11-19T09:42:03.376Z,3.55
2022-11-19T09:44:52.100Z,3.52
2022-11-19T09:47:37.663Z,3.53
2022-11-19T09:50:19.334Z,3.55
2022-11-19T09:52:57.864Z,3.46
2022-11-19T09:55:34.660Z,3.32
2022-11-19T09:58:14.831Z,3.25
2022-11-19T10:00:48.851Z,3.32
2022-11-19T10:03:27.393Z,3.45
2022-11-19T10:06:22.438Z,3.57
2022-11-19T10:09:21.521Z,4.04
2022-11-19T10:12:06.950Z,4.22
2022-11-19T10:15:06.213Z,4.14
2022-11-19T10:17:52.309Z,3.91
2022-11-19T10:20:41.942Z,3.60
2022-11-19T10:23:19.992Z,3.33
2022-11-19T10:25:59.164Z,3.18
2022-11-19T10:28:37.962Z,3.19
2022-11-19T10:31:18.011Z,3.20
2022-11-19T10:33:55.291Z,3.15
2022-11-19T10:36:35.168Z,3.11
2022-11-19T10:39:16.813Z,3.56
2022-11-19T10:41:57.246Z,3.69
2022-11-19T10:44:41.690Z,3.58
2022-11-19T10:47:22.736Z,3.45
2022-11-19T10:49:57.721Z,3.35
2022-11-19T10:52:36.206Z,3.35
2022-11-19T10:55:25.542Z,3.35
2022-11-19T10:58:17.510Z,3.34
2022-11-19T11:00:54.980Z,3.29
2022-11-19T11:03:33.111Z,3.14
2022-11-19T11:06:10.422Z,3.01
2022-11-19T11:08:53.404Z,2.94
2022-11-19T11:11:46.232Z,2.84
2022-11-19T11:14:53.903Z,2.72
2022-11-19T11:17:30.368Z,2.65
2022-11-19T11:20:07.531Z,2.61
2022-11-19T11:22:40.860Z,2.55
2022-11-19T11:25:23.937Z,2.52
2022-11-19T11:28:09.595Z,2.53
2022-11-19T11:30:56.094Z,2.58
2022-11-19T11:33:37.097Z,2.62
2022-11-19T11:36:14.366Z,2.66
2022-11-19T11:38:50.629Z,2.72
2022-11-19T11:42:04.733Z,2.74
2022-11-19T11:44:24.914Z,2.76
2022-11-19T11:47:02.708Z,2.82
2022-11-19T11:49:39.056Z,2.80
2022-11-19T11:52:21.347Z,2.77
2022-11-19T11:55:03.448Z,2.69
2022-11-19T11:57:38.264Z,2.61
2022-11-19T12:00:38.128Z,2.54
2022-11-19T12:03:14.576Z,2.50
2022-11-19T12:05:58.591Z,2.54
2022-11-19T12:08:52.142Z,2.63
2022-11-19T12:11:52.301Z,2.69
2022-11-19T12:14:31.730Z,2.72
2022-11-19T12:17:31.183Z,2.69
2022-11-19T12:20:22.986Z,2.69
2022-11-19T12:23:11.936Z,2.73
2022-11-19T12:25:56.487Z,2.74
2022-11-19T12:28:48.386Z,2.71
2022-11-19T12:31:37.455Z,2.71
2022-11-19T12:34:36.152Z,2.72
2022-11-19T12:37:23.791Z,2.72
2022-11-19T12:40:03.262Z,2.74
2022-11-19T12:42:49.580Z,3.01
2022-11-19T12:45:37.199Z,3.40
2022-11-19T12:48:37.420Z,3.69
2022-11-19T12:51:21.065Z,3.97
2022-11-19T12:54:24.346Z,4.09
2022-11-19T12:57:19.400Z,4.11
2022-11-19T13:00:11.218Z,4.25
2022-11-19T13:02:55.356Z,4.32
2022-11-19T13:05:41.614Z,4.15
2022-11-19T13:08:23.131Z,3.97
2022-11-19T13:11:06.646Z,3.81
2022-11-19T13:13:45.761Z,3.69
2022-11-19T13:16:22.651Z,3.37
2022-11-19T13:19:07.846Z,3.06
2022-11-19T13:21:49.581Z,2.83
2022-11-19T13:24:30.835Z,2.61
2022-11-19T13:27:08.815Z,2.39
2022-11-19T13:29:47.517Z,2.23
2022-11-19T13:32:28.968Z,2.09
2022-11-19T13:35:12.725Z,1.99
2022-11-19T13:37:58.760Z,1.84
2022-11-19T13:40:38.870Z,1.69
2022-11-19T13:43:35.825Z,1.61
2022-11-19T13:46:21.541Z,1.54
2022-11-19T13:49:04.582Z,1.45
2022-11-19T13:51:41.842Z,1.39
2022-11-19T13:54:26.161Z,1.34
2022-11-19T13:57:01.506Z,1.26
2022-11-19T13:59:38.924Z,1.24
2022-11-19T14:02:50.912Z,1.31
2022-11-19T14:05:55.847Z,1.34
2022-11-19T14:08:42.678Z,1.30
2022-11-19T14:11:28.598Z,1.15
2022-11-19T14:14:39.003Z,1.00
2022-11-19T14:17:40.392Z,0.85
2022-11-19T14:20:53.476Z,0.71
2022-11-19T14:24:02.746Z,0.62
2022-11-19T14:27:18.823Z,0.54
2022-11-19T14:30:08.425Z,0.45
2022-11-19T14:32:48.047Z,0.38
2022-11-19T14:35:41.784Z,0.33
2022-11-19T14:38:37.358Z,0.27
2022-11-19T14:41:34.754Z,0.20
2022-11-19T14:44:22.547Z,0.13
2022-11-19T14:46:56.021Z,0.04
2022-11-19T14:49:39.643Z,-0.03
2022-11-19T14:52:25.792Z,-0.06
2022-11-19T14:55:02.252Z,-0.10
2022-11-19T14:57:39.094Z,-0.13
2022-11-19T15:00:34.003Z,-0.15
2022-11-19T15:03:10.485Z,-0.21
2022-11-19T15:05:47.066Z,-0.26
2022-11-19T15:08:47.731Z,-0.29
2022-11-19T15:11:22.382Z,-0.31
2022-11-19T15:15:03.756Z,-0.34
2022-11-19T15:17:38.388Z,-0.36
2022-11-19T15:20:30.675Z,-0.37
2022-11-19T15:23:13.908Z,-0.39
2022-11-19T15:26:00.078Z,-0.41
2022-11-19T15:28:47.541Z,-0.41
2022-11-19T15:31:40.252Z,-0.39
2022-11-19T15:34:49.544Z,-0.34
2022-11-19T15:37:44.914Z,-0.30
2022-11-19T15:40:23.481Z,-0.28
2022-11-19T15:43:03.909Z,-0.28
2022-11-19T15:45:46.848Z,-0.28
2022-11-19T15:48:25.877Z,-0.31
2022-11-19T15:51:00.430Z,-0.37
2022-11-19T15:53:34.107Z,-0.43
2022-11-19T15:56:14.786Z,-0.47
2022-11-19T15:58:49.582Z,-0.52
2022-11-19T16:01:24.344Z,-0.57
2022-11-19T16:03:57.873Z,-0.64
2022-11-19T16:06:32.434Z,-0.71
2022-11-19T16:09:07.209Z,-0.76
2022-11-19T16:11:59.308Z,-0.81
2022-11-19T16:14:51.546Z,-0.84
2022-11-19T16:17:43.055Z,-0.86
2022-11-19T16:20:23.559Z,-0.88
2022-11-19T16:23:04.047Z,-0.90
2022-11-19T16:25:41.053Z,-0.95
2022-11-19T16:28:17.559Z,-1.01
2022-11-19T16:30:53.473Z,-1.05
2022-11-19T16:33:29.130Z,-1.07
2022-11-19T16:36:16.828Z,-1.08
2022-11-19T16:38:53.400Z,-1.08
2022-11-19T16:41:45.529Z,-1.07
2022-11-19T16:44:23.121Z,-1.06
2022-11-19T16:46:57.671Z,-1.05
2022-11-19T16:49:42.670Z,-1.02
2022-11-19T16:52:43.567Z,-1.03
2022-11-19T16:55:44.408Z,-1.04
2022-11-19T16:58:22.045Z,-1.05
2022-11-19T17:01:00.032Z,-1.08
2022-11-19T17:03:40.019Z,-1.10
2022-11-19T17:06:26.347Z,-1.16
2022-11-19T17:09:01.984Z,-1.19
2022-11-19T17:12:10.435Z,-1.20
2022-11-19T17:14:59.127Z,-1.21
2022-11-19T17:17:43.856Z,-1.24
2022-11-19T17:21:00.203Z,-1.23
2022-11-19T17:23:36.566Z,-1.25
2022-11-19T17:26:17.791Z,-1.26
2022-11-19T17:28:54.445Z,-1.25
2022-11-19T17:31:29.803Z,-1.25
2022-11-19T17:34:14.452Z,-1.26
2022-11-19T17:36:48.601Z,-1.26
2022-11-19T17:39:25.353Z,-1.29
2022-11-19T17:42:17.804Z,-1.30
2022-11-19T17:44:52.005Z,-1.29
2022-11-19T17:47:26.163Z,-1.29
2022-11-19T17:50:00.526Z,-1.29
2022-11-19T17:52:35.167Z,-1.28
2022-11-19T17:55:19.479Z,-1.22
2022-11-19T17:57:53.681Z,-1.16
2022-11-19T18:00:27.628Z,-1.12
2022-11-19T18:03:03.402Z,-1.11
2022-11-19T18:05:39.684Z,-1.08
2022-11-19T18:08:14.227Z,-1.08
2022-11-19T18:10:49.626Z,-1.04
2022-11-19T18:13:27.759Z,-1.01
2022-11-19T18:16:02.283Z,-0.97
2022-11-19T18:18:36.773Z,-0.96
2022-11-19T18:21:14.920Z,-0.94
2022-11-19T18:23:50.008Z,-0.94
2022-11-19T18:26:25.168Z,-0.96
2022-11-19T18:28:59.755Z,-0.95
2022-11-19T18:31:34.294Z,-0.96
2022-11-19T18:34:08.444Z,-0.97
2022-11-19T18:36:43.641Z,-0.98
2022-11-19T18:39:18.393Z,-0.98
2022-11-19T18:41:52.437Z,-0.98
2022-11-19T18:44:36.794Z,-0.96
2022-11-19T18:47:13.018Z,-0.97
2022-11-19T18:49:47.269Z,-0.99
2022-11-19T18:52:21.629Z,-1.01
2022-11-19T18:54:56.032Z,-1.01
2022-11-19T18:57:30.144Z,-0.98
2022-11-19T19:00:04.279Z,-0.97
2022-11-19T19:02:40.076Z,-0.97
2022-11-19T19:05:14.681Z,-1.00
2022-11-19T19:07:48.845Z,-1.02
2022-11-19T19:10:23.082Z,-1.01
2022-11-19T19:12:57.704Z,-1.01
2022-11-19T19:15:33.086Z,-1.01
2022-11-19T19:18:08.073Z,-0.99
2022-11-19T19:20:43.027Z,-0.98
2022-11-19T19:23:17.884Z,-0.96
2022-11-19T19:25:52.433Z,-0.95
2022-11-19T19:28:27.813Z,-0.97
2022-11-19T19:31:02.962Z,-1.01
2022-11-19T19:33:37.480Z,-1.04
2022-11-19T19:36:12.745Z,-1.05
2022-11-19T19:38:48.257Z,-1.04
2022-11-19T19:41:26.459Z,-1.04
2022-11-19T19:44:04.311Z,-1.08
2022-11-19T19:46:38.430Z,-1.10
2022-11-19T19:49:12.222Z,-1.11
2022-11-19T19:51:47.098Z,-1.14
2022-11-19T19:54:21.985Z,-1.17
2022-11-19T19:56:56.612Z,-1.22
2022-11-19T19:59:30.739Z,-1.27
2022-11-19T20:02:07.415Z,-1.30
2022-11-19T20:04:41.813Z,-1.29
2022-11-19T20:07:16.360Z,-1.28
2022-11-19T20:09:50.817Z,-1.29
2022-11-19T20:12:45.737Z,-1.33
2022-11-19T20:15:21.112Z,-1.35
2022-11-19T20:17:55.325Z,-1.36
2022-11-19T20:20:30.294Z,-1.36
2022-11-19T20:23:05.884Z,-1.39
2022-11-19T20:25:40.795Z,-1.41
2022-11-19T20:28:16.237Z,-1.44
2022-11-19T20:30:51.794Z,-1.45
2022-11-19T20:33:27.055Z,-1.44
2022-11-19T20:36:01.753Z,-1.41
2022-11-19T20:38:39.106Z,-1.40
2022-11-19T20:41:29.545Z,-1.42
2022-11-19T20:44:24.083Z,-1.41
2022-11-19T20:47:00.691Z,-1.42
2022-11-19T20:49:36.595Z,-1.42
2022-11-19T20:52:11.668Z,-1.42
2022-11-19T20:54:47.764Z,-1.43
2022-11-19T20:57:22.511Z,-1.44
2022-11-19T20:59:56.513Z,-1.47
2022-11-19T21:02:31.835Z,-1.50
2022-11-19T21:05:07.076Z,-1.57
2022-11-19T21:07:41.185Z,-1.63
2022-11-19T21:10:15.985Z,-1.66
2022-11-19T21:13:03.478Z,-1.68
2022-11-19T21:15:40.326Z,-1.68
2022-11-19T21:18:14.711Z,-1.68
2022-11-19T21:20:49.390Z,-1.69
2022-11-19T21:23:23.596Z,-1.73
2022-11-19T21:26:04.626Z,-1.79
2022-11-19T21:28:38.718Z,-1.82
2022-11-19T21:31:14.231Z,-1.86
2022-11-19T21:33:49.499Z,-1.89
2022-11-19T21:36:24.606Z,-1.90
2022-11-19T21:38:58.474Z,-1.90
2022-11-19T21:41:32.997Z,-1.91
2022-11-19T21:44:09.798Z,-1.88
2022-11-19T21:46:43.664Z,-1.88
2022-11-19T21:49:17.979Z,-1.87
2022-11-19T21:51:53.499Z,-1.86
2022-11-19T21:54:27.023Z,-1.85
2022-11-19T21:57:01.226Z,-1.85
2022-11-19T21:59:34.484Z,-1.86
2022-11-19T22:02:08.689Z,-1.85
2022-11-19T22:04:42.104Z,-1.87
2022-11-19T22:07:15.684Z,-1.91
2022-11-19T22:09:49.515Z,-1.94
2022-11-19T22:12:23.259Z,-1.93
2022-11-19T22:14:56.623Z,-1.96
2022-11-19T22:17:32.785Z,-1.97
2022-11-19T22:20:08.292Z,-1.97
2022-11-19T22:22:45.469Z,-1.96
2022-11-19T22:25:19.489Z,-1.97
2022-11-19T22:27:52.802Z,-1.98
2022-11-19T22:30:26.922Z,-1.99
2022-11-19T22:33:00.198Z,-1.97
2022-11-19T22:35:33.987Z,-1.97
2022-11-19T22:38:07.989Z,-2.01
2022-11-19T22:40:41.761Z,-2.03
2022-11-19T22:43:19.053Z,-2.06
2022-11-19T22:45:56.250Z,-2.11
2022-11-19T22:48:31.672Z,-2.13
2022-11-19T22:51:08.790Z,-2.12
2022-11-19T22:53:42.519Z,-2.11
2022-11-19T22:56:19.209Z,-2.11
2022-11-19T22:58:54.285Z,-2.10
2022-11-19T23:01:29.238Z,-2.09
2022-11-19T23:04:07.363Z,-2.08
2022-11-19T23:06:41.004Z,-2.09
2022-11-19T23:09:14.483Z,-2.10
2022-11-19T23:12:06.023Z,-2.14
2022-11-19T23:14:39.804Z,-2.14
2022-11-19T23:17:13.595Z,-2.13
2022-11-19T23:19:47.476Z,-2.12
2022-11-19T23:22:21.568Z,-2.13
2022-11-19T23:24:55.159Z,-2.12
2022-11-19T23:27:28.500Z,-2.11
2022-11-19T23:30:02.137Z,-2.10
2022-11-19T23:32:35.561Z,-2.12
2022-11-19T23:35:10.831Z,-2.17
2022-11-19T23:37:44.734Z,-2.21
2022-11-19T23:40:18.352Z,-2.23
2022-11-19T23:42:52.289Z,-2.27
2022-11-19T23:45:25.859Z,-2.31
2022-11-19T23:48:00.266Z,-2.37
2022-11-19T23:50:34.193Z,-2.41
2022-11-19T23:53:07.843Z,-2.45
2022-11-19T23:55:41.531Z,-2.47
2022-11-19T23:58:15.109Z,-2.46
